Terminal Aerodrome Forecast
Issued by NWS

Home | Current Version | Previous Version | Text Only | Print | Product List | Glossary On
Versions: 1 2 3 4 5 6 7 8 9 10 11 12 13 14 15 16 17 18 19 20 21 22 23 24 25 26 27 28 29 30 31
997
FTUS43 KPAH 111720
TAFOWB
TAF
KOWB 111720Z 1118/1218 04008KT P6SM SCT015 BKN045
      TEMPO 1118/1122 SCT045 BKN100
     FM120000 03004KT P6SM SCT040 OVC100
     FM121000 VRB03KT 3SM -SN SCT020 OVC040 PROB30 1210/1216 1SM -SN
      BR BKN020=

USA.gov is the U.S. government's official web portal to all federal, state and local government web resources and services.